createdAt,value
2023-04-09T00:02:44.326Z,101929.22
2023-04-09T00:05:29.840Z,101929.31
2023-04-09T00:08:15.199Z,101930.75
2023-04-09T00:11:00.393Z,101925.03
2023-04-09T00:13:45.474Z,101926.81
2023-04-09T00:16:30.310Z,101922.22
2023-04-09T00:19:15.782Z,101932.28
2023-04-09T00:22:01.324Z,101925.66
2023-04-09T00:24:46.802Z,101926.16
2023-04-09T00:27:32.005Z,101923.78
2023-04-09T00:30:16.869Z,101916.91
2023-04-09T00:33:01.699Z,101916.59
2023-04-09T00:35:47.156Z,101915.91
2023-04-09T00:38:32.523Z,101911.19
2023-04-09T00:41:17.840Z,101908.13
2023-04-09T00:44:03.277Z,101910.69
2023-04-09T00:46:48.226Z,101912.19
2023-04-09T00:49:33.715Z,101906.75
2023-04-09T00:52:19.493Z,101906.56
2023-04-09T00:55:05.380Z,101913.69
2023-04-09T00:57:50.848Z,101902.75
2023-04-09T01:00:35.699Z,101913.72
2023-04-09T01:03:21.533Z,101907.44
2023-04-09T01:06:22.274Z,101909.00
2023-04-09T01:09:21.468Z,101912.63
2023-04-09T01:12:42.340Z,101916.38
2023-04-09T01:15:30.917Z,101915.38
2023-04-09T01:18:35.955Z,101907.19
2023-04-09T01:21:26.883Z,101912.06
2023-04-09T01:24:48.308Z,101911.75
2023-04-09T01:28:13.954Z,101900.16
2023-04-09T01:31:07.068Z,101902.03
2023-04-09T01:33:52.718Z,101899.94
2023-04-09T01:36:40.057Z,101900.63
2023-04-09T01:39:26.503Z,101899.66
2023-04-09T01:42:15.651Z,101901.03
2023-04-09T01:45:02.484Z,101899.84
2023-04-09T01:47:48.109Z,101902.91
2023-04-09T01:50:33.897Z,101898.59
2023-04-09T01:53:19.654Z,101902.69
2023-04-09T01:56:05.391Z,101896.28
2023-04-09T01:58:50.946Z,101910.03
2023-04-09T02:01:51.989Z,101900.53
2023-04-09T02:04:41.509Z,101906.94
2023-04-09T02:07:37.980Z,101899.19
2023-04-09T02:10:26.357Z,101890.13
2023-04-09T02:13:16.490Z,101886.75
2023-04-09T02:16:01.925Z,101889.78
2023-04-09T02:18:47.260Z,101892.50
2023-04-09T02:21:32.397Z,101897.13
2023-04-09T02:24:17.731Z,101903.53
2023-04-09T02:27:02.753Z,101910.63
2023-04-09T02:29:47.844Z,101904.06
2023-04-09T02:32:32.752Z,101894.88
2023-04-09T02:35:18.196Z,101907.06
2023-04-09T02:38:03.177Z,101907.72
2023-04-09T02:40:48.280Z,101901.47
2023-04-09T02:43:33.876Z,101896.09
2023-04-09T02:46:18.940Z,101902.56
2023-04-09T02:49:04.444Z,101896.63
2023-04-09T02:51:49.569Z,101896.44
2023-04-09T02:54:34.866Z,101901.34
2023-04-09T02:57:19.792Z,101900.25
2023-04-09T03:00:05.861Z,101882.91
2023-04-09T03:02:51.081Z,101882.16
2023-04-09T03:05:36.341Z,101889.97
2023-04-09T03:08:21.214Z,101885.34
2023-04-09T03:11:06.068Z,101888.94
2023-04-09T03:13:51.206Z,101880.94
2023-04-09T03:16:36.603Z,101885.72
2023-04-09T03:19:21.432Z,101883.72
2023-04-09T03:22:06.214Z,101880.03
2023-04-09T03:24:51.601Z,101879.28
2023-04-09T03:27:36.495Z,101869.94
2023-04-09T03:30:21.358Z,101867.97
2023-04-09T03:33:06.683Z,101869.56
2023-04-09T03:35:52.267Z,101869.19
2023-04-09T03:38:37.284Z,101871.19
2023-04-09T03:41:22.577Z,101874.41
2023-04-09T03:44:07.476Z,101866.78
2023-04-09T03:46:52.488Z,101879.06
2023-04-09T03:49:38.128Z,101874.44
2023-04-09T03:52:23.481Z,101863.19
2023-04-09T03:55:09.128Z,101870.63
2023-04-09T03:57:54.083Z,101862.16
2023-04-09T04:00:38.943Z,101872.72
2023-04-09T04:03:23.932Z,101869.69
2023-04-09T04:06:09.254Z,101870.91
2023-04-09T04:08:54.589Z,101874.88
2023-04-09T04:11:39.804Z,101873.56
2023-04-09T04:14:25.095Z,101875.44
2023-04-09T04:17:10.901Z,101870.78
2023-04-09T04:19:55.941Z,101869.13
2023-04-09T04:22:40.961Z,101864.13
2023-04-09T04:25:26.487Z,101869.13
2023-04-09T04:28:11.839Z,101868.16
2023-04-09T04:30:57.174Z,101866.34
2023-04-09T04:33:42.669Z,101870.50
2023-04-09T04:36:28.010Z,101872.91
2023-04-09T04:39:13.106Z,101867.81
2023-04-09T04:41:58.349Z,101867.94
2023-04-09T04:44:44.288Z,101876.19
2023-04-09T04:47:29.237Z,101878.31
2023-04-09T04:50:14.654Z,101867.94
2023-04-09T04:52:59.519Z,101868.69
2023-04-09T04:55:44.400Z,101874.94
2023-04-09T04:58:29.426Z,101870.63
2023-04-09T05:01:14.284Z,101877.22
2023-04-09T05:03:59.686Z,101871.38
2023-04-09T05:06:45.002Z,101873.38
2023-04-09T05:09:29.898Z,101869.41
2023-04-09T05:12:14.729Z,101864.22
2023-04-09T05:14:59.545Z,101863.56
2023-04-09T05:17:45.306Z,101868.22
2023-04-09T05:20:30.586Z,101870.31
2023-04-09T05:23:15.482Z,101871.16
2023-04-09T05:26:00.301Z,101868.06
2023-04-09T05:28:45.713Z,101865.50
2023-04-09T05:31:30.651Z,101886.97
2023-04-09T05:34:15.613Z,101875.13
2023-04-09T05:37:01.125Z,101887.06
2023-04-09T05:39:46.340Z,101877.53
2023-04-09T05:42:31.360Z,101891.63
2023-04-09T05:45:16.693Z,101892.09
2023-04-09T05:48:02.103Z,101894.94
2023-04-09T05:50:55.111Z,101892.66
2023-04-09T05:53:41.280Z,101901.25
2023-04-09T05:56:26.464Z,101895.88
2023-04-09T05:59:11.711Z,101903.16
2023-04-09T06:01:56.999Z,101890.94
2023-04-09T06:04:42.314Z,101897.16
2023-04-09T06:07:27.681Z,101893.16
2023-04-09T06:10:12.958Z,101891.19
2023-04-09T06:12:57.794Z,101896.78
2023-04-09T06:15:42.609Z,101885.53
2023-04-09T06:18:28.031Z,101891.50
2023-04-09T06:21:13.282Z,101889.94
2023-04-09T06:23:58.149Z,101895.31
2023-04-09T06:26:43.081Z,101893.41
2023-04-09T06:29:28.334Z,101890.06
2023-04-09T06:32:13.740Z,101883.25
2023-04-09T06:34:59.036Z,101881.63
2023-04-09T06:37:44.530Z,101887.16
2023-04-09T06:40:30.205Z,101881.84
2023-04-09T06:43:15.665Z,101880.63
2023-04-09T06:46:00.994Z,101867.63
2023-04-09T06:48:46.584Z,101869.28
2023-04-09T06:51:31.922Z,101870.19
2023-04-09T06:54:17.052Z,101859.03
2023-04-09T06:57:02.458Z,101862.16
2023-04-09T06:59:47.415Z,101860.91
2023-04-09T07:02:33.005Z,101847.19
2023-04-09T07:05:18.472Z,101833.94
2023-04-09T07:08:03.645Z,101830.13
2023-04-09T07:10:49.078Z,101827.28
2023-04-09T07:13:34.098Z,101832.03
2023-04-09T07:16:19.676Z,101836.03
2023-04-09T07:19:05.151Z,101832.91
2023-04-09T07:21:50.082Z,101814.38
2023-04-09T07:24:34.974Z,101822.22
2023-04-09T07:27:20.639Z,101800.66
2023-04-09T07:30:06.500Z,101786.41
2023-04-09T07:32:51.825Z,101786.06
2023-04-09T07:35:37.132Z,101776.06
2023-04-09T07:38:22.376Z,101760.06
2023-04-09T07:41:11.019Z,101751.81
2023-04-09T07:43:56.114Z,101740.28
2023-04-09T07:46:41.665Z,101714.03
2023-04-09T07:49:26.996Z,101700.47
2023-04-09T07:52:12.465Z,101705.72
2023-04-09T07:54:57.910Z,101688.69
2023-04-09T07:57:43.282Z,101711.09
2023-04-09T08:00:28.436Z,101685.28
2023-04-09T08:03:14.008Z,101657.97
2023-04-09T08:05:59.372Z,101657.00
2023-04-09T08:08:44.710Z,101668.41
2023-04-09T08:11:29.971Z,101623.88
2023-04-09T08:14:16.734Z,101608.41
2023-04-09T08:17:01.778Z,101591.16
2023-04-09T08:19:47.443Z,101569.47
2023-04-09T08:22:32.810Z,101555.75
2023-04-09T08:25:17.824Z,101621.06
2023-04-09T08:28:02.622Z,101631.56
2023-04-09T08:30:47.611Z,101635.00
2023-04-09T08:33:33.096Z,101631.47
2023-04-09T08:36:18.520Z,101633.25
2023-04-09T08:39:04.092Z,101602.81
2023-04-09T08:41:51.736Z,101598.88
2023-04-09T08:44:37.121Z,101588.97
2023-04-09T08:47:22.749Z,101615.81
2023-04-09T08:50:08.224Z,101643.50
2023-04-09T08:52:54.341Z,101583.25
2023-04-09T08:55:39.282Z,101561.03
2023-04-09T08:58:24.678Z,101624.97
2023-04-09T09:01:24.213Z,101654.13
2023-04-09T09:04:09.985Z,101614.31
2023-04-09T09:07:06.613Z,101620.19
2023-04-09T09:09:55.945Z,101617.06
2023-04-09T09:12:41.813Z,101629.06
2023-04-09T09:15:30.578Z,101621.94
2023-04-09T09:18:16.656Z,101574.75
2023-04-09T09:21:16.414Z,101536.88
2023-04-09T09:24:02.413Z,101527.81
2023-04-09T09:26:47.776Z,101582.81
2023-04-09T09:29:41.196Z,101465.47
2023-04-09T09:32:28.355Z,101513.72
2023-04-09T09:35:13.427Z,101534.34
2023-04-09T09:38:04.648Z,101523.63
2023-04-09T09:40:50.138Z,101530.31
2023-04-09T09:43:44.370Z,101514.41
2023-04-09T09:46:31.400Z,101475.63
2023-04-09T09:49:16.710Z,101484.69
2023-04-09T09:52:05.260Z,101455.63
2023-04-09T09:54:52.607Z,101485.59
2023-04-09T09:57:42.138Z,101470.88
2023-04-09T10:00:31.612Z,101473.53
2023-04-09T10:03:22.733Z,101552.09
2023-04-09T10:06:09.003Z,101558.09
2023-04-09T10:08:57.956Z,101537.88
2023-04-09T10:11:44.752Z,101487.41
2023-04-09T10:14:30.473Z,101381.63
2023-04-09T10:17:15.725Z,101400.63
2023-04-09T10:20:19.136Z,101394.28
2023-04-09T10:23:11.618Z,101483.97
2023-04-09T10:25:57.036Z,101439.56
2023-04-09T10:28:43.187Z,101465.63
2023-04-09T10:31:28.294Z,101479.53
2023-04-09T10:34:18.091Z,101475.22
2023-04-09T10:37:03.273Z,101383.56
2023-04-09T10:39:49.116Z,101356.88
2023-04-09T10:42:36.621Z,101457.97
2023-04-09T10:45:22.531Z,101431.34
2023-04-09T10:48:11.947Z,101427.69
2023-04-09T10:50:57.336Z,101424.38
2023-04-09T10:53:42.693Z,101421.03
2023-04-09T10:56:27.749Z,101476.88
2023-04-09T10:59:12.948Z,101446.28
2023-04-09T11:01:57.983Z,101449.91
2023-04-09T11:04:54.564Z,101414.25
2023-04-09T11:07:45.340Z,101425.88
2023-04-09T11:10:34.087Z,101396.88
2023-04-09T11:13:19.455Z,101399.28
2023-04-09T11:16:05.397Z,101394.66
2023-04-09T11:18:50.826Z,101403.91
2023-04-09T11:21:36.440Z,101375.50
2023-04-09T11:24:21.339Z,101391.38
2023-04-09T11:27:06.671Z,101396.19
2023-04-09T11:29:58.176Z,101358.94
2023-04-09T11:32:43.792Z,101359.53
2023-04-09T11:35:28.889Z,101345.59
2023-04-09T11:38:13.791Z,101348.91
2023-04-09T11:40:59.168Z,101358.13
2023-04-09T11:43:44.247Z,101345.25
2023-04-09T11:46:30.791Z,101390.03
2023-04-09T11:49:17.154Z,101372.84
2023-04-09T11:52:03.008Z,101349.22
2023-04-09T11:54:49.229Z,101344.69
2023-04-09T11:57:46.298Z,101350.66
2023-04-09T12:00:32.313Z,101344.22
2023-04-09T12:03:17.662Z,101388.13
2023-04-09T12:06:05.061Z,101352.69
2023-04-09T12:08:57.691Z,101338.94
2023-04-09T12:11:44.456Z,101367.00
2023-04-09T12:14:29.763Z,101371.53
2023-04-09T12:17:14.780Z,101328.75
2023-04-09T12:20:00.168Z,101354.13
2023-04-09T12:22:45.632Z,101362.81
2023-04-09T12:25:35.720Z,101347.19
2023-04-09T12:28:20.949Z,101382.47
2023-04-09T12:31:10.029Z,101381.16
2023-04-09T12:33:55.245Z,101346.78
2023-04-09T12:36:41.089Z,101379.59
2023-04-09T12:39:26.419Z,101331.97
2023-04-09T12:42:11.229Z,101289.53
2023-04-09T12:44:56.141Z,101284.63
2023-04-09T12:47:41.869Z,101293.31
2023-04-09T12:50:27.055Z,101311.38
2023-04-09T12:53:12.381Z,101303.72
2023-04-09T12:55:57.408Z,101306.63
2023-04-09T12:58:42.692Z,101312.25
2023-04-09T13:01:28.177Z,101302.72
2023-04-09T13:04:13.795Z,101279.09
2023-04-09T13:06:59.288Z,101265.81
2023-04-09T13:09:48.539Z,101276.53
2023-04-09T13:12:33.717Z,101264.16
2023-04-09T13:15:19.282Z,101217.91
2023-04-09T13:18:04.485Z,101224.41
2023-04-09T13:20:49.912Z,101191.72
2023-04-09T13:23:35.394Z,101232.38
2023-04-09T13:26:20.595Z,101241.88
2023-04-09T13:29:06.928Z,101201.28
2023-04-09T13:31:52.179Z,101231.72
2023-04-09T13:34:38.769Z,101207.00
2023-04-09T13:37:23.888Z,101261.06
2023-04-09T13:40:09.341Z,101248.16
2023-04-09T13:42:54.779Z,101243.34
2023-04-09T13:45:39.961Z,101246.84
2023-04-09T13:48:25.335Z,101235.78
2023-04-09T13:51:10.534Z,101239.41
2023-04-09T13:53:55.457Z,101260.94
2023-04-09T13:56:40.774Z,101189.19
2023-04-09T13:59:25.989Z,101219.09
2023-04-09T14:02:11.290Z,101254.66
2023-04-09T14:04:56.509Z,101265.44
2023-04-09T14:07:42.304Z,101267.38
2023-04-09T14:10:28.000Z,101261.38
2023-04-09T14:13:13.539Z,101250.13
2023-04-09T14:16:00.405Z,101245.25
2023-04-09T14:18:45.844Z,101248.84
2023-04-09T14:21:30.774Z,101224.22
2023-04-09T14:24:15.626Z,101281.78
2023-04-09T14:27:00.665Z,101291.34
2023-04-09T14:29:45.522Z,101265.38
2023-04-09T14:32:30.397Z,101280.28
2023-04-09T14:35:16.115Z,101289.19
2023-04-09T14:38:01.435Z,101280.97
2023-04-09T14:40:46.387Z,101295.31
2023-04-09T14:43:31.264Z,101290.19
2023-04-09T14:46:16.245Z,101275.78
2023-04-09T14:49:01.611Z,101266.97
2023-04-09T14:51:46.650Z,101294.91
2023-04-09T14:54:31.799Z,101289.44
2023-04-09T14:57:16.510Z,101291.31
2023-04-09T15:00:01.897Z,101300.03
2023-04-09T15:02:47.485Z,101284.16
2023-04-09T15:05:33.210Z,101296.66
2023-04-09T15:08:18.410Z,101300.25
2023-04-09T15:11:03.581Z,101288.66
2023-04-09T15:13:48.743Z,101311.31
2023-04-09T15:16:33.623Z,101313.97
2023-04-09T15:19:19.010Z,101293.34
2023-04-09T15:22:04.362Z,101317.81
2023-04-09T15:24:51.319Z,101302.31
2023-04-09T15:27:36.424Z,101290.16
2023-04-09T15:30:22.976Z,101330.91
2023-04-09T15:33:08.063Z,101359.16
2023-04-09T15:35:54.190Z,101330.22
2023-04-09T15:38:39.883Z,101326.78
2023-04-09T15:41:25.733Z,101314.78
2023-04-09T15:44:10.660Z,101305.03
2023-04-09T15:46:55.774Z,101317.84
2023-04-09T15:49:40.902Z,101322.69
2023-04-09T15:52:26.451Z,101327.13
2023-04-09T15:55:11.945Z,101316.09
2023-04-09T15:57:57.042Z,101334.50
2023-04-09T16:00:42.045Z,101326.03
2023-04-09T16:03:27.270Z,101312.84
2023-04-09T16:06:12.463Z,101301.22
2023-04-09T16:08:57.892Z,101274.38
2023-04-09T16:11:43.281Z,101248.66
2023-04-09T16:14:28.293Z,101223.34
2023-04-09T16:17:13.666Z,101249.75
2023-04-09T16:19:58.864Z,101237.91
2023-04-09T16:22:44.331Z,101222.91
2023-04-09T16:25:30.032Z,101197.13
2023-04-09T16:28:16.413Z,101238.50
2023-04-09T16:31:01.742Z,101235.97
2023-04-09T16:33:46.955Z,101250.88
2023-04-09T16:36:31.994Z,101260.78
2023-04-09T16:39:19.379Z,101272.75
2023-04-09T16:42:04.598Z,101278.97
2023-04-09T16:44:49.618Z,101282.19
2023-04-09T16:47:34.953Z,101281.88
2023-04-09T16:50:20.622Z,101294.91
2023-04-09T16:53:06.147Z,101292.25
2023-04-09T16:55:51.684Z,101300.81
2023-04-09T16:58:36.942Z,101298.88
2023-04-09T17:01:22.074Z,101296.81
2023-04-09T17:04:07.485Z,101308.97
2023-04-09T17:06:52.798Z,101289.53
2023-04-09T17:09:38.280Z,101305.13
2023-04-09T17:12:23.664Z,101299.34
2023-04-09T17:15:09.706Z,101303.03
2023-04-09T17:17:55.124Z,101320.47
2023-04-09T17:20:40.462Z,101329.16
2023-04-09T17:23:25.384Z,101292.72
2023-04-09T17:26:10.900Z,101291.03
2023-04-09T17:28:55.803Z,101286.75
2023-04-09T17:31:41.319Z,101321.38
2023-04-09T17:34:26.562Z,101296.88
2023-04-09T17:37:11.378Z,101304.81
2023-04-09T17:39:56.740Z,101292.47
2023-04-09T17:42:42.198Z,101297.34
2023-04-09T17:45:27.407Z,101303.31
2023-04-09T17:48:12.918Z,101317.03
2023-04-09T17:50:58.275Z,101299.41
2023-04-09T17:53:43.325Z,101323.59
2023-04-09T17:56:28.669Z,101306.91
2023-04-09T17:59:14.166Z,101304.00
2023-04-09T18:02:00.701Z,101299.53
2023-04-09T18:04:45.936Z,101311.88
2023-04-09T18:07:31.698Z,101314.22
2023-04-09T18:10:16.908Z,101322.53
2023-04-09T18:13:02.193Z,101326.59
2023-04-09T18:15:47.574Z,101351.03
2023-04-09T18:18:32.999Z,101347.22
2023-04-09T18:21:18.064Z,101358.72
2023-04-09T18:24:04.378Z,101359.28
2023-04-09T18:26:49.793Z,101375.63
2023-04-09T18:29:35.207Z,101375.50
2023-04-09T18:32:20.360Z,101387.81
2023-04-09T18:35:06.217Z,101383.84
2023-04-09T18:37:51.554Z,101387.72
2023-04-09T18:40:43.863Z,101400.88
2023-04-09T18:43:29.525Z,101397.25
2023-04-09T18:46:14.839Z,101400.72
2023-04-09T18:48:59.655Z,101403.22
2023-04-09T18:51:44.486Z,101417.66
2023-04-09T18:54:29.399Z,101416.34
2023-04-09T18:57:14.468Z,101449.47
2023-04-09T19:00:00.520Z,101441.81
2023-04-09T19:02:46.114Z,101427.00
2023-04-09T19:05:32.372Z,101435.41
2023-04-09T19:08:17.304Z,101439.72
2023-04-09T19:11:02.844Z,101455.97
2023-04-09T19:13:47.914Z,101459.47
2023-04-09T19:16:33.317Z,101473.91
2023-04-09T19:19:18.625Z,101480.34
2023-04-09T19:22:03.909Z,101478.94
2023-04-09T19:24:49.529Z,101494.63
2023-04-09T19:27:34.635Z,101485.72
2023-04-09T19:30:20.268Z,101504.41
2023-04-09T19:33:05.580Z,101514.47
2023-04-09T19:35:52.632Z,101528.88
2023-04-09T19:38:37.721Z,101540.75
2023-04-09T19:41:23.057Z,101540.06
2023-04-09T19:44:08.031Z,101554.31
2023-04-09T19:46:52.937Z,101559.50
2023-04-09T19:49:38.285Z,101552.34
2023-04-09T19:52:23.783Z,101554.94
2023-04-09T19:55:09.778Z,101555.03
2023-04-09T19:57:54.894Z,101548.09
2023-04-09T20:00:40.271Z,101537.69
2023-04-09T20:03:25.761Z,101538.78
2023-04-09T20:06:10.941Z,101539.69
2023-04-09T20:08:56.405Z,101528.72
2023-04-09T20:11:41.758Z,101536.50
2023-04-09T20:14:27.183Z,101535.91
2023-04-09T20:17:12.668Z,101521.75
2023-04-09T20:19:57.933Z,101526.06
2023-04-09T20:22:43.488Z,101528.53
2023-04-09T20:25:28.918Z,101536.06
2023-04-09T20:28:14.271Z,101535.97
2023-04-09T20:31:02.647Z,101534.16
2023-04-09T20:33:48.237Z,101530.69
2023-04-09T20:36:34.385Z,101524.06
2023-04-09T20:39:22.052Z,101520.84
2023-04-09T20:42:07.672Z,101528.13
2023-04-09T20:44:52.831Z,101519.59
2023-04-09T20:47:38.379Z,101518.03
2023-04-09T20:50:23.571Z,101515.06
2023-04-09T20:53:08.872Z,101519.97
2023-04-09T20:55:54.967Z,101525.78
2023-04-09T20:58:40.013Z,101530.97
2023-04-09T21:01:25.569Z,101536.66
2023-04-09T21:04:11.435Z,101542.53
2023-04-09T21:06:56.924Z,101542.75
2023-04-09T21:09:42.222Z,101530.06
2023-04-09T21:12:27.966Z,101541.25
2023-04-09T21:15:13.228Z,101531.81
2023-04-09T21:17:58.683Z,101535.72
2023-04-09T21:20:47.117Z,101529.25
2023-04-09T21:23:32.300Z,101537.63
2023-04-09T21:26:17.730Z,101550.59
2023-04-09T21:29:02.711Z,101566.53
2023-04-09T21:31:48.718Z,101551.50
2023-04-09T21:34:33.906Z,101547.84
2023-04-09T21:37:18.803Z,101544.25
2023-04-09T21:40:05.222Z,101549.44
2023-04-09T21:42:51.017Z,101555.72
2023-04-09T21:45:35.968Z,101544.91
2023-04-09T21:48:21.432Z,101545.28
2023-04-09T21:51:09.778Z,101560.00
2023-04-09T21:54:06.073Z,101557.41
2023-04-09T21:56:51.225Z,101551.84
2023-04-09T21:59:37.095Z,101553.16
2023-04-09T22:02:22.877Z,101557.97
2023-04-09T22:05:08.212Z,101558.72
2023-04-09T22:07:54.784Z,101549.59
2023-04-09T22:10:39.653Z,101542.25
2023-04-09T22:13:25.075Z,101550.63
2023-04-09T22:16:10.233Z,101541.03
2023-04-09T22:18:57.255Z,101543.47
2023-04-09T22:21:42.883Z,101539.75
2023-04-09T22:24:27.941Z,101537.59
2023-04-09T22:27:13.308Z,101545.53
2023-04-09T22:29:58.988Z,101553.91
2023-04-09T22:32:44.134Z,101567.72
2023-04-09T22:35:29.513Z,101575.03
2023-04-09T22:38:14.816Z,101559.88
2023-04-09T22:41:00.636Z,101554.25
2023-04-09T22:43:46.186Z,101565.53
2023-04-09T22:46:31.570Z,101561.09
2023-04-09T22:49:17.007Z,101567.81
2023-04-09T22:52:02.278Z,101582.66
2023-04-09T22:54:47.797Z,101582.38
2023-04-09T22:57:32.659Z,101584.41
2023-04-09T23:00:18.125Z,101584.69
2023-04-09T23:03:03.806Z,101580.47
2023-04-09T23:05:48.830Z,101585.53
2023-04-09T23:08:33.745Z,101577.00
2023-04-09T23:11:18.630Z,101579.78
2023-04-09T23:14:03.630Z,101572.81
2023-04-09T23:16:48.564Z,101588.81
2023-04-09T23:19:33.901Z,101589.78
2023-04-09T23:22:19.339Z,101591.47
2023-04-09T23:25:04.507Z,101596.19
2023-04-09T23:27:49.697Z,101598.09
2023-04-09T23:30:35.068Z,101593.09
2023-04-09T23:33:20.089Z,101589.41
2023-04-09T23:36:05.683Z,101594.34
2023-04-09T23:38:50.910Z,101603.06
2023-04-09T23:41:36.004Z,101603.66
2023-04-09T23:44:21.383Z,101600.56
2023-04-09T23:47:06.440Z,101597.94
2023-04-09T23:49:51.725Z,101592.78
2023-04-09T23:52:38.170Z,101587.13
2023-04-09T23:55:23.625Z,101579.28
2023-04-09T23:58:09.024Z,101584.50
